Latest Coastal Weather Observations for Centre Island

IDD60701

Issued at 6:11 pm CST Saturday 1 October 2016 (issued every 10 minutes, with the page automatically refreshed every 10 minutes)

About coastal observations | Map of coastal stations | Coastal observations for NT | Marine services | Other Formats
Station Details ID: 014703 Name: CENTRE ISLAND Lat: -15.74 Lon: 136.82 Height: 12.2 m
Data from the previous 72 hours. | See also: Recent months at Centre Island
Date/Time
CST
Temp
°C
Wind Pressure Rain since
9am
mm
Weather Cloud Vis
km
Sea
Height
m
Swell
Dir  Spd
kts
Gust
kts
hPa Trend Height
m
Period
s
Dir
01/06:00pm 28.6 NE 10 13 1008.8 - 0.0 - - - - - - -
01/05:30pm 29.1 NE 10 14 1008.7 - 0.0 - - - - - - -
01/05:00pm 29.0 NNE 11 15 1008.6 - 0.0 - - - - - - -
01/04:30pm 29.7 NNE 13 17 1008.3 - 0.0 - - - - - - -
01/04:00pm 29.7 NNE 12 16 1008.4 - 0.0 - - - - - - -
01/03:30pm 30.8 NE 13 17 1008.9 - 0.0 - - - - - - -
01/03:00pm 31.4 NNE 13 16 1009.3 - 0.0 - - - - - - -
01/02:30pm 31.5 NNE 12 17 1009.7 - 0.0 - - - - - - -
01/02:00pm 31.5 NNE 12 16 1009.9 - 0.0 - - - - - - -
01/01:30pm 32.0 NE 11 15 1010.2 - 0.0 - - - - - - -
01/01:00pm 31.2 NE 11 14 1010.7 - 0.0 - - - - - - -
01/12:30pm 31.0 NNE 10 14 1011.1 - 0.0 - - - - - - -
01/12:00pm 32.2 NE 10 15 1011.3 - 0.0 - - - - - - -
01/11:30am 32.5 NNE 8 11 1011.6 - 0.0 - - - - - - -
01/11:00am 31.7 NE 9 10 1011.9 - 0.0 - - - - - - -
01/10:30am 31.0 NE 7 8 1012.6 - 0.0 - - - - - - -
01/10:00am 30.9 ENE 7 9 1012.8 - 0.0 - - - - - - -
01/09:30am 30.1 ENE 7 8 1012.8 - 0.0 - - - - - - -
01/09:00am 30.4 NE 6 8 1012.9 - 0.0 - - - - - - -
01/08:30am 30.2 NE 5 6 1012.8 - 0.0 - - - - - - -
01/08:00am 29.3 NNE 4 6 1012.5 - 0.0 - - - - - - -
01/07:30am 28.5 N 5 6 1012.2 - 0.0 - - - - - - -
01/07:00am 26.8 N 3 5 1012.0 - 0.0 - - - - - - -
01/06:30am 26.5 NW 5 6 1011.5 - 0.0 - - - - - - -
01/06:00am 26.6 NNW 3 4 1011.1 - 0.0 - - - - - - -
01/05:30am 27.3 NNE 5 7 1010.4 - 0.0 - - - - - - -
01/05:00am 27.2 NNE 8 10 1009.5 - 0.0 - - - - - - -
01/04:30am 27.3 NE 7 11 1009.3 - 0.0 - - - - - - -
01/04:00am 27.1 NNE 7 9 1009.1 - 0.0 - - - - - - -
01/03:30am 27.3 NNE 6 8 1009.3 - 0.0 - - - - - - -
01/03:00am 27.3 NNE 7 9 1009.3 - 0.0 - - - - - - -
01/02:30am 27.4 NE 8 10 1009.3 - 0.0 - - - - - - -
01/02:00am 27.3 NE 9 11 1009.3 - 0.0 - - - - - - -
01/01:30am 27.3 NE 11 13 1009.0 - 0.0 - - - - - - -
01/01:00am 27.3 NE 11 14 1009.1 - 0.0 - - - - - - -
01/12:30am 27.3 NE 11 15 1009.3 - 0.0 - - - - - - -
01/12:00am 27.4 NE 11 14 1009.4 - 0.0 - - - - - - -
 
Date/Time
CST
Temp
°C
Wind Pressure Rain since
9am
mm
Weather Cloud Vis
km
Sea
Height
m
Swell
Dir  Spd
kts
Gust
kts
hPa Trend Height
m
Period
s
Dir
30/11:30pm 27.2 NE 11 13 1009.6 - 0.0 - - - - - - -
30/11:00pm 27.4 NE 12 16 1009.6 - 0.0 - - - - - - -
30/10:30pm 27.5 NE 12 16 1009.6 - 0.0 - - - - - - -
30/10:00pm 27.5 NE 11 14 1009.6 - 0.0 - - - - - - -
30/09:30pm 27.5 NE 12 16 1009.2 - 0.0 - - - - - - -
30/09:00pm 27.6 NE 13 16 1009.2 - 0.0 - - - - - - -
30/08:30pm 27.8 NE 12 16 1009.0 - 0.0 - - - - - - -
30/08:00pm 27.6 NE 13 16 1008.7 - 0.0 - - - - - - -
30/07:30pm 27.8 NE 12 15 1008.4 - 0.0 - - - - - - -
30/07:00pm 27.7 NE 12 16 1008.1 - 0.0 - - - - - - -
30/06:30pm 27.9 NE 13 17 1007.8 - 0.0 - - - - - - -
30/06:00pm 28.2 NE 8 11 1008.3 - 0.0 - - - - - - -
30/05:30pm 28.7 NE 12 16 1008.2 - 0.0 - - - - - - -
30/05:00pm 29.0 NE 14 18 1007.5 - 0.0 - - - - - - -
30/04:30pm 29.5 NE 14 19 1007.3 - 0.0 - - - - - - -
30/04:00pm 30.1 NE 14 18 1007.1 - 0.0 - - - - - - -
30/03:30pm 30.3 NNE 14 18 1007.3 - 0.0 - - - - - - -
30/03:00pm 30.5 NE 15 19 1007.8 - 0.0 - - - - - - -
30/02:30pm 30.9 NNE 14 18 1008.3 - 0.0 - - - - - - -
30/02:00pm 31.4 NNE 12 16 1008.5 - 0.0 - - - - - - -
30/01:30pm 32.4 NE 9 13 1009.0 - 0.0 - - - - - - -
30/01:00pm 32.1 NE 10 13 1009.5 - 0.0 - - - - - - -
30/12:30pm 32.1 E 8 9 1009.9 - 0.0 - - - - - - -
30/12:00pm 31.3 E 9 12 1010.3 - 0.0 - - - - - - -
30/11:30am 31.6 ESE 12 14 1010.8 - 0.0 - - - - - - -
30/11:00am 30.4 ESE 13 14 1011.2 - 0.0 - - - - - - -
30/10:30am 30.5 ESE 13 15 1011.2 - 0.0 - - - - - - -
30/10:00am 30.5 ESE 13 14 1011.3 - 0.0 - - - - - - -
30/09:30am 30.0 ESE 11 14 1011.3 - 0.0 - - - - - - -
30/09:00am 29.6 SE 10 12 1011.3 - 0.2 - - - - - - -
30/08:30am 29.4 SE 10 12 1011.2 - 0.2 - - - - - - -
30/08:00am 28.2 SE 11 12 1010.9 - 0.2 - - - - - - -
30/07:30am 27.2 SE 11 12 1010.7 - 0.2 - - - - - - -
30/07:00am 27.3 CALM 0 3 1010.1 - 0.2 - - - - - - -
30/06:30am 26.4 CALM 0 0 1009.5 - 0.2 - - - - - - -
30/06:00am 26.4 W 3 4 1009.3 - 0.2 - - - - - - -
30/05:30am 26.0 NW 4 5 1009.1 - 0.2 - - - - - - -
30/05:00am 26.1 CALM 0 0 1008.8 - 0.2 - - - - - - -
30/04:30am 25.9 CALM 0 0 1008.4 - 0.2 - - - - - - -
30/04:00am 26.1 NW 4 5 1008.3 - 0.2 - - - - - - -
30/03:30am 26.3 NNW 4 7 1008.2 - 0.2 - - - - - - -
30/03:00am 26.6 N 5 6 1008.4 - 0.2 - - - - - - -
30/02:30am 26.8 N 5 8 1008.6 - 0.2 - - - - - - -
30/02:00am 27.0 N 9 12 1008.6 - 0.2 - - - - - - -
30/01:30am 26.9 NNW 7 11 1008.7 - 0.2 - - - - - - -
30/01:00am 27.1 N 9 12 1008.6 - 0.2 - - - - - - -
30/12:30am 27.1 N 9 14 1008.8 - 0.2 - - - - - - -
30/12:00am 27.2 N 9 14 1009.1 - 0.2 - - - - - - -
 
Date/Time
CST
Temp
°C
Wind Pressure Rain since
9am
mm
Weather Cloud Vis
km
Sea
Height
m
Swell
Dir  Spd
kts
Gust
kts
hPa Trend Height
m
Period
s
Dir
29/11:30pm 27.5 N 11 15 1009.1 - 0.2 - - - - - - -
29/11:00pm 27.7 NNE 12 17 1009.2 - 0.2 - - - - - - -
29/10:30pm 27.8 NNE 12 16 1009.2 - 0.2 - - - - - - -
29/10:00pm 28.0 NNE 8 11 1009.7 - 0.2 - - - - - - -
29/09:30pm 27.9 NE 9 12 1009.8 - 0.2 - - - - - - -
29/09:00pm 27.9 NE 8 10 1009.8 - 0.2 - - - - - - -
29/08:30pm 28.0 NNE 4 6 1009.5 - 0.2 - - - - - - -
29/08:00pm 28.0 N 9 12 1008.8 - 0.2 - - - - - - -
29/07:30pm 28.0 NNE 11 15 1007.8 - 0.2 - - - - - - -
29/07:00pm 28.0 N 11 14 1007.0 - 0.2 - - - - - - -
29/06:30pm 28.4 N 12 16 1006.4 - 0.2 - - - - - - -
29/06:00pm 28.9 N 13 17 1006.1 - 0.2 - - - - - - -
29/05:30pm 29.7 N 12 16 1006.1 - 0.2 - - - - - - -
29/05:00pm 30.5 N 11 15 1005.9 - 0.2 - - - - - - -
29/04:30pm 30.8 N 11 15 1005.9 - 0.2 - - - - - - -
29/04:00pm 31.6 N 11 15 1006.5 - 0.2 - - - - - - -
29/03:30pm 31.5 NNE 10 13 1006.7 - 0.2 - - - - - - -
29/03:00pm 30.6 N 9 14 1006.6 - 0.2 - - - - - - -
29/02:30pm 32.1 N 11 15 1006.8 - 0.2 - - - - - - -
29/02:00pm 32.4 NNW 9 14 1007.3 - 0.2 - - - - - - -
29/01:30pm 32.1 NNW 11 15 1007.9 - 0.2 - - - - - - -
29/01:00pm 30.1 S 4 6 1008.4 - 0.2 - - - - - - -
29/12:30pm 31.1 SSW 7 9 1008.8 - 0.2 - - - - - - -
29/12:00pm 30.5 SE 4 6 1009.0 - 0.2 Recent precip. - - - - - -
29/11:30am 30.1 SW 6 7 1009.4 - 0.2 - - - - - - -
29/11:00am 29.4 WSW 8 9 1009.6 - 0.0 - - - - - - -
29/10:30am 28.1 WSW 5 7 1009.9 - 0.0 - - - - - - -
29/10:00am 26.9 W 5 6 1010.1 - 0.0 - - - - - - -
29/09:30am 25.0 NNW 7 10 1010.4 - 0.0 - - - - - - -
29/09:00am 23.6 NNW 9 13 1011.1 - 7.8 Recent precip. - - - - - -
29/08:30am 22.9 NW 9 14 1011.6 - 7.6 - - - - - - -
29/08:20am 23.4 W 11 14 1011.6 - 7.4 - - - - - - -
29/08:00am 23.5 W 27 33 1011.7 - 3.4 - - - - - - -
29/07:35am 26.4 WNW 9 30 1011.6 - 0.0 - - - - - - -
29/07:30am 27.9 NW 5 6 1010.9 - 0.0 - - - - - - -
29/07:00am 27.5 WNW 6 7 1010.4 - 0.0 - - - - - - -
29/06:30am 27.6 W 6 8 1009.8 - 0.0 - - - - - - -
29/06:00am 27.4 NNW 8 10 1008.6 - 0.0 - - - - - - -
29/05:30am 27.3 N 8 11 1008.0 - 0.0 - - - - - - -
29/05:00am 27.4 N 10 13 1007.7 - 0.0 - - - - - - -
29/04:30am 27.3 N 7 10 1007.7 - 0.0 - - - - - - -
29/04:00am 27.2 N 7 10 1007.7 - 0.0 - - - - - - -
29/03:30am 27.5 NNE 11 13 1007.3 - 0.0 - - - - - - -
29/03:00am 27.5 NNE 9 11 1007.7 - 0.0 - - - - - - -
29/02:30am 27.2 E 4 5 1008.7 - 0.0 - - - - - - -
29/02:00am 27.3 SE 5 6 1009.3 - 0.0 - - - - - - -
29/01:30am 27.4 S 7 10 1009.7 - 0.0 - - - - - - -
29/01:00am 27.8 SW 8 13 1010.4 - 0.0 - - - - - - -
29/12:30am 28.1 WSW 7 9 1010.8 - 0.0 - - - - - - -
29/12:00am 28.2 WSW 10 14 1011.1 - 0.0 - - - - - - -
 
Date/Time
CST
Temp
°C
Wind Pressure Rain since
9am
mm
Weather Cloud Vis
km
Sea
Height
m
Swell
Dir  Spd
kts
Gust
kts
hPa Trend Height
m
Period
s
Dir
28/11:30pm 27.9 N 9 14 1009.7 - 0.0 - - - - - - -
28/11:00pm 27.9 N 10 14 1009.4 - 0.0 - - - - - - -
28/10:30pm 27.9 N 12 16 1009.3 - 0.0 - - - - - - -
28/10:00pm 27.9 NNE 12 16 1009.1 - 0.0 - - - - - - -
28/09:30pm 28.0 NNE 15 19 1008.9 - 0.0 - - - - - - -
28/09:00pm 28.0 NNE 15 19 1008.6 - 0.0 - - - - - - -
28/08:30pm 28.0 NNE 16 21 1008.4 - 0.0 - - - - - - -
28/08:00pm 28.1 NNE 16 20 1008.1 - 0.0 - - - - - - -
28/07:30pm 28.1 NNE 15 18 1007.9 - 0.0 - - - - - - -
28/07:00pm 28.0 NNE 14 18 1007.8 - 0.0 - - - - - - -
28/06:30pm 28.1 NNE 14 18 1007.6 - 0.0 - - - - - - -

Other Formats:

Comma delimited format used in spreadsheet applications
http://www.bom.gov.au/fwo/IDD60701/IDD60701.94248.axf

JavaScript Object Notation format (JSON) in row-major order
http://www.bom.gov.au/fwo/IDD60701/IDD60701.94248.json